Time;durP1;ratioP1;P1;durP2;ratioP2;P2;SDS_P1;SDS_P2;PMS_P1;PMS_P2;Temp;Humidity;BMP_temperature;BMP_pressure;BME280_temperature;BME280_humidity;BME280_pressure;Samples;Min_cycle;Max_cycle;Signal;HPM_P1;HPM_P2
2023/06/16 00:02:24;;;;;;;6.65;3.65;;;;;;;;;;5035044;28;20885;-65
2023/06/16 00:04:50;;;;;;;6.18;3.42;;;;;;;;;;5044398;28;20055;-65
2023/06/16 00:07:19;;;;;;;6.00;3.60;;;;;;;;;;5044105;28;20035;-65
2023/06/16 00:09:48;;;;;;;5.30;3.63;;;;;;;;;;5044313;28;20020;-65
2023/06/16 00:12:13;;;;;;;6.32;3.63;;;;;;;;;;5040027;28;20020;-65
2023/06/16 00:14:39;;;;;;;5.13;3.20;;;;;;;;;;5026216;28;20841;-65
2023/06/16 00:17:05;;;;;;;5.13;3.38;;;;;;;;;;5035351;28;20024;-65
2023/06/16 00:19:31;;;;;;;6.53;4.22;;;;;;;;;;5043192;28;20945;-66
2023/06/16 00:21:59;;;;;;;7.82;3.75;;;;;;;;;;5043820;28;20141;-67
2023/06/16 00:24:26;;;;;;;7.15;4.05;;;;;;;;;;5039931;28;20024;-66
2023/06/16 00:26:51;;;;;;;4.80;3.35;;;;;;;;;;5032131;28;20023;-67
2023/06/16 00:29:16;;;;;;;8.77;4.20;;;;;;;;;;5034979;28;20051;-66
2023/06/16 00:31:41;;;;;;;5.65;3.60;;;;;;;;;;5044341;28;20316;-66
2023/06/16 00:34:07;;;;;;;4.67;3.37;;;;;;;;;;5034649;28;20060;-66
2023/06/16 00:36:32;;;;;;;5.38;3.78;;;;;;;;;;5051011;28;20308;-66
2023/06/16 00:38:57;;;;;;;5.50;3.60;;;;;;;;;;5092405;28;20447;-66
2023/06/16 00:41:22;;;;;;;10.60;4.07;;;;;;;;;;5091951;28;20262;-66
2023/06/16 00:43:48;;;;;;;7.60;4.15;;;;;;;;;;5092775;28;20497;-66
2023/06/16 00:46:27;;;;;;;11.87;3.87;;;;;;;;;;5093076;28;20150;-66
2023/06/16 00:48:53;;;;;;;5.30;3.53;;;;;;;;;;5092085;28;20285;-66
2023/06/16 00:51:18;;;;;;;3.72;2.63;;;;;;;;;;5092545;28;20028;-66
2023/06/16 00:53:43;;;;;;;7.60;4.00;;;;;;;;;;5091296;28;20035;-66
2023/06/16 00:56:08;;;;;;;5.68;3.80;;;;;;;;;;5091865;28;20108;-66
2023/06/16 00:58:34;;;;;;;5.32;3.80;;;;;;;;;;5092126;28;20020;-66
2023/06/16 01:01:00;;;;;;;9.02;4.15;;;;;;;;;;5082521;28;20059;-66
2023/06/16 01:03:26;;;;;;;5.75;3.60;;;;;;;;;;5084418;28;20091;-66
2023/06/16 01:05:56;;;;;;;6.97;3.63;;;;;;;;;;5091576;28;20024;-66
2023/06/16 01:08:27;;;;;;;12.98;3.53;;;;;;;;;;5091779;28;20016;-66
2023/06/16 01:10:59;;;;;;;6.28;3.95;;;;;;;;;;5091578;28;20372;-65
2023/06/16 01:13:27;;;;;;;5.93;4.03;;;;;;;;;;5091690;28;20020;-67
2023/06/16 01:15:53;;;;;;;6.43;3.88;;;;;;;;;;5091322;28;20020;-66
2023/06/16 01:18:22;;;;;;;7.80;4.10;;;;;;;;;;5091890;28;20024;-66
2023/06/16 01:20:53;;;;;;;9.93;4.15;;;;;;;;;;5090951;28;20505;-66
2023/06/16 01:23:34;;;;;;;10.25;3.90;;;;;;;;;;5088031;28;20120;-66
2023/06/16 01:26:03;;;;;;;8.77;4.20;;;;;;;;;;5087570;28;20028;-66
2023/06/16 01:28:30;;;;;;;7.45;4.28;;;;;;;;;;5090795;28;20036;-66
2023/06/16 01:30:56;;;;;;;17.52;4.40;;;;;;;;;;5091063;28;20028;-66
2023/06/16 01:33:22;;;;;;;5.05;3.35;;;;;;;;;;5085763;28;20070;-66
2023/06/16 01:35:48;;;;;;;9.52;4.13;;;;;;;;;;5091201;28;20038;-66
2023/06/16 01:38:14;;;;;;;6.65;4.20;;;;;;;;;;5091931;28;20016;-66
2023/06/16 01:40:40;;;;;;;6.32;3.70;;;;;;;;;;5073335;28;20024;-66
2023/06/16 01:43:05;;;;;;;6.63;3.90;;;;;;;;;;5078008;28;20028;-66
2023/06/16 01:45:31;;;;;;;8.57;4.03;;;;;;;;;;5091496;28;20077;-66
2023/06/16 01:47:56;;;;;;;7.50;4.35;;;;;;;;;;5091180;28;20474;-66
2023/06/16 01:50:22;;;;;;;7.57;4.43;;;;;;;;;;5091578;28;20020;-66
2023/06/16 01:52:47;;;;;;;10.30;3.88;;;;;;;;;;5092003;28;20012;-66
2023/06/16 01:55:12;;;;;;;5.93;3.90;;;;;;;;;;5086604;28;20475;-66
2023/06/16 01:57:38;;;;;;;9.60;4.40;;;;;;;;;;5091594;28;20782;-66
2023/06/16 02:00:15;;;;;;;5.93;4.13;;;;;;;;;;5091468;28;20032;-66
2023/06/16 02:02:42;;;;;;;5.00;3.90;;;;;;;;;;5091499;28;20024;-66
2023/06/16 02:05:10;;;;;;;8.05;4.88;;;;;;;;;;5090950;28;20055;-66
2023/06/16 02:07:37;;;;;;;6.68;3.85;;;;;;;;;;5091249;28;20028;-66
2023/06/16 02:10:03;;;;;;;6.50;3.70;;;;;;;;;;5091524;28;20093;-66
2023/06/16 02:12:29;;;;;;;7.78;4.57;;;;;;;;;;5073479;28;20032;-66
2023/06/16 02:14:54;;;;;;;7.00;4.13;;;;;;;;;;5090464;28;20104;-66
2023/06/16 02:17:22;;;;;;;7.03;4.10;;;;;;;;;;5077980;28;20039;-66
2023/06/16 02:19:48;;;;;;;8.10;3.70;;;;;;;;;;5090201;28;20023;-66
2023/06/16 02:22:13;;;;;;;7.75;4.55;;;;;;;;;;5083213;28;20021;-66
2023/06/16 02:24:38;;;;;;;7.55;4.70;;;;;;;;;;5070937;28;20360;-66
2023/06/16 02:27:04;;;;;;;6.07;4.50;;;;;;;;;;5090581;28;20057;-66
2023/06/16 02:29:30;;;;;;;7.88;4.70;;;;;;;;;;5094604;28;20047;-66
2023/06/16 02:31:55;;;;;;;5.57;3.78;;;;;;;;;;5094164;28;20028;-66
2023/06/16 02:34:20;;;;;;;7.65;5.05;;;;;;;;;;5094326;28;20024;-66
2023/06/16 02:36:46;;;;;;;12.07;4.88;;;;;;;;;;5094104;28;20493;-66
2023/06/16 02:39:11;;;;;;;8.57;4.72;;;;;;;;;;5093678;28;20024;-66
2023/06/16 02:41:36;;;;;;;8.32;4.80;;;;;;;;;;5093395;28;20102;-66
2023/06/16 02:44:03;;;;;;;6.03;5.10;;;;;;;;;;5094098;28;20024;-67
2023/06/16 02:46:28;;;;;;;7.90;4.50;;;;;;;;;;5090002;28;20349;-66
2023/06/16 02:48:53;;;;;;;9.85;5.20;;;;;;;;;;5093818;28;20184;-67
2023/06/16 02:51:18;;;;;;;11.57;5.07;;;;;;;;;;5093737;28;20028;-66
2023/06/16 02:53:45;;;;;;;9.38;5.07;;;;;;;;;;5043744;28;20281;-67
2023/06/16 02:56:11;;;;;;;10.32;4.97;;;;;;;;;;5089260;28;20043;-66
2023/06/16 02:58:36;;;;;;;7.47;4.78;;;;;;;;;;5092889;28;20027;-66
2023/06/16 03:01:02;;;;;;;7.95;4.70;;;;;;;;;;5092996;28;20379;-67
2023/06/16 03:03:30;;;;;;;7.03;4.55;;;;;;;;;;5092822;28;20024;-67
2023/06/16 03:05:57;;;;;;;10.48;4.90;;;;;;;;;;5087567;28;20051;-66
2023/06/16 03:08:22;;;;;;;9.35;4.45;;;;;;;;;;5093395;28;20016;-67
2023/06/16 03:10:47;;;;;;;12.40;5.07;;;;;;;;;;5093598;28;20030;-66
2023/06/16 03:13:13;;;;;;;7.83;4.30;;;;;;;;;;5085431;28;20028;-66
2023/06/16 03:15:38;;;;;;;8.43;4.85;;;;;;;;;;5090260;28;20292;-66
2023/06/16 03:18:03;;;;;;;9.10;4.93;;;;;;;;;;5094045;28;20032;-66
2023/06/16 03:20:28;;;;;;;11.15;4.72;;;;;;;;;;5082886;28;20020;-66
2023/06/16 03:22:54;;;;;;;6.13;4.70;;;;;;;;;;5092884;28;20100;-66
2023/06/16 03:25:21;;;;;;;7.55;4.70;;;;;;;;;;5079597;28;20031;-67
2023/06/16 03:27:46;;;;;;;7.38;5.07;;;;;;;;;;5079861;28;20475;-67
2023/06/16 03:30:11;;;;;;;8.93;4.57;;;;;;;;;;5093852;28;20016;-66
2023/06/16 03:32:38;;;;;;;6.68;4.40;;;;;;;;;;5093640;28;20498;-66
2023/06/16 03:35:04;;;;;;;7.80;5.28;;;;;;;;;;5088707;28;20027;-66
2023/06/16 03:37:30;;;;;;;7.15;4.65;;;;;;;;;;5092991;28;20035;-66
2023/06/16 03:39:56;;;;;;;8.98;4.63;;;;;;;;;;5092626;28;20024;-65
2023/06/16 03:42:21;;;;;;;10.02;4.57;;;;;;;;;;5093836;28;20031;-66
2023/06/16 03:44:46;;;;;;;7.50;4.30;;;;;;;;;;5079792;28;20111;-66
2023/06/16 03:47:12;;;;;;;7.67;4.80;;;;;;;;;;5092890;28;20792;-66
2023/06/16 03:49:37;;;;;;;8.98;4.90;;;;;;;;;;5088015;28;20664;-66
2023/06/16 03:52:02;;;;;;;6.93;5.05;;;;;;;;;;5089024;28;20028;-66
2023/06/16 03:54:28;;;;;;;5.70;4.40;;;;;;;;;;5092671;28;20057;-66
2023/06/16 03:56:53;;;;;;;8.30;4.70;;;;;;;;;;5092972;28;20028;-66
2023/06/16 03:59:19;;;;;;;8.48;4.40;;;;;;;;;;5092158;28;20016;-66
2023/06/16 04:01:46;;;;;;;7.50;4.63;;;;;;;;;;5092985;28;20027;-66
2023/06/16 04:04:12;;;;;;;7.95;4.50;;;;;;;;;;5092788;28;20055;-66
2023/06/16 04:06:37;;;;;;;9.05;4.63;;;;;;;;;;5092871;28;20024;-66
2023/06/16 04:09:03;;;;;;;7.43;4.85;;;;;;;;;;5093168;28;20463;-66
2023/06/16 04:11:28;;;;;;;6.15;4.68;;;;;;;;;;5091692;28;20036;-66
2023/06/16 04:13:53;;;;;;;7.68;4.15;;;;;;;;;;5092287;28;20024;-65
2023/06/16 04:16:19;;;;;;;10.35;4.85;;;;;;;;;;5091706;28;20032;-66
2023/06/16 04:18:48;;;;;;;9.40;4.68;;;;;;;;;;5091735;28;20346;-66
2023/06/16 04:21:13;;;;;;;8.75;4.95;;;;;;;;;;5090812;28;20446;-66
2023/06/16 04:23:38;;;;;;;12.88;5.03;;;;;;;;;;5086369;28;20020;-66
2023/06/16 04:26:06;;;;;;;11.13;5.00;;;;;;;;;;5085637;28;20089;-66
2023/06/16 04:28:31;;;;;;;7.35;4.63;;;;;;;;;;5092781;28;20081;-66
2023/06/16 04:30:56;;;;;;;7.90;4.97;;;;;;;;;;5092022;28;20470;-66
2023/06/16 04:33:22;;;;;;;10.00;4.80;;;;;;;;;;5089774;28;20270;-66
2023/06/16 04:35:48;;;;;;;9.38;4.43;;;;;;;;;;5090837;28;20061;-66
2023/06/16 04:38:13;;;;;;;8.23;4.30;;;;;;;;;;5091947;28;20036;-66
2023/06/16 04:40:38;;;;;;;7.35;4.47;;;;;;;;;;5080838;28;20100;-66
2023/06/16 04:43:03;;;;;;;9.77;4.53;;;;;;;;;;5086798;28;20074;-66
2023/06/16 04:45:29;;;;;;;13.95;5.55;;;;;;;;;;5083799;28;20530;-66
2023/06/16 04:47:54;;;;;;;12.82;4.30;;;;;;;;;;5091923;28;20028;-66
2023/06/16 04:50:19;;;;;;;8.35;4.75;;;;;;;;;;5091164;28;20099;-66
2023/06/16 04:52:47;;;;;;;5.35;4.45;;;;;;;;;;5078354;28;20107;-66
2023/06/16 04:55:15;;;;;;;8.43;4.88;;;;;;;;;;5092406;28;20036;-65
2023/06/16 04:57:40;;;;;;;15.45;4.78;;;;;;;;;;5092170;28;20036;-66
2023/06/16 05:00:07;;;;;;;10.17;5.33;;;;;;;;;;5091573;28;20024;-65
2023/06/16 05:02:32;;;;;;;8.88;4.72;;;;;;;;;;5091366;28;20364;-65
2023/06/16 05:04:58;;;;;;;7.72;5.10;;;;;;;;;;5090917;28;20095;-66
2023/06/16 05:07:23;;;;;;;10.73;5.20;;;;;;;;;;5091237;28;20173;-65
2023/06/16 05:09:48;;;;;;;11.75;5.00;;;;;;;;;;5092058;28;20480;-65
2023/06/16 05:12:13;;;;;;;7.93;4.55;;;;;;;;;;5091175;28;20027;-65
2023/06/16 05:14:39;;;;;;;9.75;4.45;;;;;;;;;;5091648;28;20030;-66
2023/06/16 05:17:04;;;;;;;8.20;4.53;;;;;;;;;;5091620;28;20429;-66
2023/06/16 05:19:31;;;;;;;14.00;5.03;;;;;;;;;;5082188;28;20157;-66
2023/06/16 05:21:57;;;;;;;7.13;4.95;;;;;;;;;;5043170;28;20024;-66
2023/06/16 05:24:22;;;;;;;8.48;4.68;;;;;;;;;;5040870;28;20058;-66
2023/06/16 05:26:47;;;;;;;8.27;5.38;;;;;;;;;;5035906;28;20020;-66
2023/06/16 05:29:12;;;;;;;6.30;4.25;;;;;;;;;;5042882;28;20028;-66
2023/06/16 05:31:38;;;;;;;10.55;5.55;;;;;;;;;;5041884;28;20035;-66
2023/06/16 05:34:03;;;;;;;7.10;4.82;;;;;;;;;;5044852;28;20048;-65
2023/06/16 05:36:34;;;;;;;6.35;4.75;;;;;;;;;;5045588;28;20028;-65
2023/06/16 05:39:00;;;;;;;9.50;5.53;;;;;;;;;;5044909;28;20039;-65
2023/06/16 05:41:27;;;;;;;14.38;4.32;;;;;;;;;;5034025;28;20032;-65
2023/06/16 05:43:52;;;;;;;7.50;4.40;;;;;;;;;;5039575;28;20027;-65
2023/06/16 05:46:17;;;;;;;8.23;4.15;;;;;;;;;;5070757;28;20040;-66
2023/06/16 05:48:43;;;;;;;10.13;4.70;;;;;;;;;;5090683;28;20012;-65
2023/06/16 05:51:08;;;;;;;11.98;5.38;;;;;;;;;;5086831;28;20043;-64
2023/06/16 05:53:33;;;;;;;8.83;4.97;;;;;;;;;;5088958;28;20016;-65
2023/06/16 05:55:59;;;;;;;10.53;5.00;;;;;;;;;;5072953;28;20306;-66
2023/06/16 05:58:24;;;;;;;7.93;5.03;;;;;;;;;;5090784;28;20293;-66
2023/06/16 06:00:49;;;;;;;9.63;5.15;;;;;;;;;;5091254;28;20023;-66
2023/06/16 06:03:14;;;;;;;7.17;4.93;;;;;;;;;;5089863;28;20059;-66
2023/06/16 06:05:40;;;;;;;8.20;4.27;;;;;;;;;;5090869;28;20628;-66
2023/06/16 06:08:05;;;;;;;9.82;4.35;;;;;;;;;;5090035;28;20280;-66
2023/06/16 06:10:30;;;;;;;14.10;5.18;;;;;;;;;;5089539;28;20043;-66
2023/06/16 06:12:55;;;;;;;10.77;4.83;;;;;;;;;;5083812;28;20095;-66
2023/06/16 06:15:21;;;;;;;8.45;4.43;;;;;;;;;;5091002;28;20281;-66
2023/06/16 06:17:46;;;;;;;7.33;5.30;;;;;;;;;;5090267;28;20020;-67
2023/06/16 06:20:11;;;;;;;7.87;4.80;;;;;;;;;;5090803;28;20731;-64
2023/06/16 06:22:36;;;;;;;7.07;4.82;;;;;;;;;;5091089;28;20278;-66
2023/06/16 06:25:04;;;;;;;10.45;5.50;;;;;;;;;;5075245;28;20115;-65
2023/06/16 06:27:29;;;;;;;6.75;5.38;;;;;;;;;;5090472;28;20494;-65
2023/06/16 06:29:54;;;;;;;11.07;4.57;;;;;;;;;;5089888;28;20027;-66
2023/06/16 06:32:20;;;;;;;8.53;4.13;;;;;;;;;;5090671;28;20439;-66
2023/06/16 06:34:45;;;;;;;9.40;4.93;;;;;;;;;;5090622;28;20383;-66
2023/06/16 06:37:16;;;;;;;7.97;4.72;;;;;;;;;;5090646;28;20038;-65
2023/06/16 06:39:41;;;;;;;8.25;4.55;;;;;;;;;;5091106;28;20016;-66
2023/06/16 06:42:07;;;;;;;7.18;4.07;;;;;;;;;;5090324;28;20029;-66
2023/06/16 06:44:32;;;;;;;11.43;5.05;;;;;;;;;;5089801;28;20024;-66
2023/06/16 06:46:58;;;;;;;9.27;4.90;;;;;;;;;;5090100;28;20053;-66
2023/06/16 06:49:23;;;;;;;9.98;5.30;;;;;;;;;;5089254;28;21119;-66
2023/06/16 06:51:50;;;;;;;7.93;4.65;;;;;;;;;;5090051;28;20111;-66
2023/06/16 06:54:15;;;;;;;7.20;4.82;;;;;;;;;;5090400;28;20032;-66
2023/06/16 06:56:40;;;;;;;8.57;4.83;;;;;;;;;;5090323;28;20024;-66
2023/06/16 06:59:06;;;;;;;7.05;4.70;;;;;;;;;;5089422;28;20740;-66
2023/06/16 07:01:31;;;;;;;5.22;4.13;;;;;;;;;;5091026;28;20024;-66
2023/06/16 07:03:56;;;;;;;10.50;5.10;;;;;;;;;;5090677;28;20031;-66
2023/06/16 07:06:21;;;;;;;10.27;5.30;;;;;;;;;;5089562;28;20269;-66
2023/06/16 07:08:47;;;;;;;7.57;5.27;;;;;;;;;;5089538;28;20377;-66
2023/06/16 07:11:12;;;;;;;7.78;4.40;;;;;;;;;;5089682;28;20336;-66
2023/06/16 07:13:37;;;;;;;10.90;5.10;;;;;;;;;;5089519;28;20074;-66
2023/06/16 07:16:03;;;;;;;11.63;4.70;;;;;;;;;;5093313;28;20756;-66
2023/06/16 07:18:29;;;;;;;8.27;5.10;;;;;;;;;;5093478;28;20290;-66
2023/06/16 07:20:54;;;;;;;8.98;4.25;;;;;;;;;;5094229;28;20031;-66
2023/06/16 07:23:20;;;;;;;11.02;4.22;;;;;;;;;;5089719;28;20463;-66
2023/06/16 07:25:45;;;;;;;7.97;4.68;;;;;;;;;;5084450;28;20024;-67
2023/06/16 07:28:10;;;;;;;8.73;4.72;;;;;;;;;;5093575;28;20016;-66
2023/06/16 07:30:36;;;;;;;8.07;4.72;;;;;;;;;;5093532;28;20028;-67
2023/06/16 07:33:01;;;;;;;7.70;4.70;;;;;;;;;;5092475;28;20027;-67
2023/06/16 07:35:26;;;;;;;7.18;3.92;;;;;;;;;;5093452;28;20297;-66
2023/06/16 07:37:51;;;;;;;10.07;4.72;;;;;;;;;;5093585;28;20031;-66
2023/06/16 07:40:17;;;;;;;7.00;3.63;;;;;;;;;;5093699;28;20048;-66
2023/06/16 07:42:45;;;;;;;7.00;4.68;;;;;;;;;;5092665;28;20784;-66
2023/06/16 07:45:11;;;;;;;11.00;4.53;;;;;;;;;;5093613;28;20078;-66
2023/06/16 07:47:38;;;;;;;6.72;3.80;;;;;;;;;;5091844;28;20043;-66
2023/06/16 07:50:03;;;;;;;5.15;3.63;;;;;;;;;;5093124;28;20088;-66
2023/06/16 07:52:28;;;;;;;15.57;4.28;;;;;;;;;;5092171;28;20106;-66
2023/06/16 07:54:54;;;;;;;9.27;3.60;;;;;;;;;;5093204;28;20110;-65
2023/06/16 07:57:19;;;;;;;7.03;3.13;;;;;;;;;;5072573;28;20020;-66
2023/06/16 07:59:44;;;;;;;5.32;3.70;;;;;;;;;;5093700;28;20764;-66
2023/06/16 08:02:09;;;;;;;12.03;3.40;;;;;;;;;;5074203;28;20020;-66
2023/06/16 08:04:35;;;;;;;8.55;3.70;;;;;;;;;;5093819;28;20280;-66
2023/06/16 08:07:00;;;;;;;5.55;3.42;;;;;;;;;;5093108;28;20026;-66
2023/06/16 08:09:25;;;;;;;5.45;3.60;;;;;;;;;;5092538;28;20026;-66
2023/06/16 08:11:51;;;;;;;8.27;3.67;;;;;;;;;;5092078;28;20031;-65
2023/06/16 08:14:16;;;;;;;8.77;3.72;;;;;;;;;;5092255;28;20056;-65
2023/06/16 08:16:42;;;;;;;9.40;3.67;;;;;;;;;;5091942;28;20081;-66
2023/06/16 08:19:10;;;;;;;5.68;3.55;;;;;;;;;;5091292;28;20047;-66
2023/06/16 08:21:37;;;;;;;6.82;3.30;;;;;;;;;;5092363;28;20036;-66
2023/06/16 08:24:03;;;;;;;10.27;4.13;;;;;;;;;;5082146;28;20052;-65
2023/06/16 08:26:28;;;;;;;5.70;3.50;;;;;;;;;;5088241;28;20052;-65
2023/06/16 08:28:53;;;;;;;6.32;4.28;;;;;;;;;;5092137;28;20428;-66
2023/06/16 08:31:19;;;;;;;7.32;3.90;;;;;;;;;;5092016;28;20020;-66
2023/06/16 08:33:44;;;;;;;6.88;3.80;;;;;;;;;;5092612;28;20038;-65
2023/06/16 08:36:09;;;;;;;5.63;3.53;;;;;;;;;;5092146;28;20035;-65
2023/06/16 08:38:36;;;;;;;9.95;4.63;;;;;;;;;;5092117;28;20289;-65
2023/06/16 08:41:03;;;;;;;5.13;3.28;;;;;;;;;;5085434;28;20024;-65
2023/06/16 08:43:28;;;;;;;5.47;3.17;;;;;;;;;;5046748;28;20842;-66
2023/06/16 08:45:55;;;;;;;6.35;3.40;;;;;;;;;;5057077;28;20029;-64
2023/06/16 08:48:21;;;;;;;7.15;3.40;;;;;;;;;;5089028;28;20404;-65
2023/06/16 08:50:46;;;;;;;8.43;3.78;;;;;;;;;;5091863;28;20024;-64
2023/06/16 08:53:12;;;;;;;7.18;4.22;;;;;;;;;;5090635;28;20115;-65
2023/06/16 08:55:39;;;;;;;10.63;4.35;;;;;;;;;;5091755;28;20028;-64
2023/06/16 08:58:07;;;;;;;6.47;3.08;;;;;;;;;;5091832;28;20463;-65
2023/06/16 09:00:33;;;;;;;5.30;3.78;;;;;;;;;;5091694;28;20028;-65
2023/06/16 09:02:59;;;;;;;8.75;3.80;;;;;;;;;;5073961;28;20035;-64
2023/06/16 09:05:25;;;;;;;6.13;4.22;;;;;;;;;;5083769;28;20108;-63
2023/06/16 09:07:51;;;;;;;7.35;3.72;;;;;;;;;;5088290;28;20020;-64
2023/06/16 09:10:16;;;;;;;5.72;3.13;;;;;;;;;;5091851;28;20394;-65
2023/06/16 09:12:42;;;;;;;5.78;3.53;;;;;;;;;;5091253;28;20025;-65
2023/06/16 09:15:08;;;;;;;7.50;4.28;;;;;;;;;;5091366;28;20125;-64
2023/06/16 09:17:34;;;;;;;9.32;4.03;;;;;;;;;;5090156;28;20028;-65
2023/06/16 09:20:00;;;;;;;6.37;3.70;;;;;;;;;;5091585;28;20024;-64
2023/06/16 09:22:26;;;;;;;8.75;4.22;;;;;;;;;;5090715;28;20756;-64
2023/06/16 09:24:58;;;;;;;8.73;3.30;;;;;;;;;;5091508;28;20431;-65
2023/06/16 09:27:27;;;;;;;6.88;3.40;;;;;;;;;;5077496;28;20036;-65
2023/06/16 09:29:59;;;;;;;4.90;3.03;;;;;;;;;;5091236;28;20039;-65
2023/06/16 09:32:25;;;;;;;5.55;3.15;;;;;;;;;;5091231;28;20099;-65
2023/06/16 09:34:50;;;;;;;5.57;3.03;;;;;;;;;;5092190;28;20154;-65
2023/06/16 09:37:19;;;;;;;4.38;2.72;;;;;;;;;;5082651;28;20023;-65
2023/06/16 09:39:45;;;;;;;3.85;3.22;;;;;;;;;;5091057;28;20490;-66
2023/06/16 09:42:16;;;;;;;5.18;2.78;;;;;;;;;;5079548;28;20024;-65
2023/06/16 09:44:41;;;;;;;6.90;3.72;;;;;;;;;;5090262;28;20027;-66
2023/06/16 09:47:11;;;;;;;7.90;3.47;;;;;;;;;;5091780;28;20028;-66
2023/06/16 09:49:36;;;;;;;8.25;3.67;;;;;;;;;;5091562;28;20030;-65
2023/06/16 09:52:02;;;;;;;4.93;3.47;;;;;;;;;;5091826;28;20095;-65
2023/06/16 09:54:27;;;;;;;5.75;3.88;;;;;;;;;;5090944;28;20315;-65
2023/06/16 09:56:55;;;;;;;7.65;3.33;;;;;;;;;;5091264;28;20047;-65
2023/06/16 09:59:21;;;;;;;6.75;3.65;;;;;;;;;;5088637;28;20035;-66
2023/06/16 10:01:46;;;;;;;5.35;3.38;;;;;;;;;;5091441;28;20028;-66
2023/06/16 10:04:13;;;;;;;5.50;3.70;;;;;;;;;;5091526;28;20073;-66
2023/06/16 10:07:00;;;;;;;5.85;3.17;;;;;;;;;;5091715;28;20119;-65
2023/06/16 10:09:28;;;;;;;6.72;3.92;;;;;;;;;;5039663;28;20024;-65
2023/06/16 10:11:56;;;;;;;6.63;3.50;;;;;;;;;;5089907;28;20479;-65
2023/06/16 10:14:22;;;;;;;4.53;2.90;;;;;;;;;;5091467;28;20027;-65
2023/06/16 10:16:49;;;;;;;7.93;3.55;;;;;;;;;;5090853;28;20028;-63
2023/06/16 10:19:16;;;;;;;8.60;3.45;;;;;;;;;;5091140;28;20039;-65
2023/06/16 10:21:42;;;;;;;6.05;3.05;;;;;;;;;;5091583;28;20073;-65
2023/06/16 10:24:07;;;;;;;8.00;3.30;;;;;;;;;;5085750;28;20032;-64
2023/06/16 10:26:33;;;;;;;9.05;3.35;;;;;;;;;;5091145;28;20498;-65
2023/06/16 10:28:59;;;;;;;6.20;3.90;;;;;;;;;;5091234;28;20057;-65
2023/06/16 10:31:27;;;;;;;9.73;3.72;;;;;;;;;;5090966;28;20352;-65
2023/06/16 10:33:56;;;;;;;5.85;3.67;;;;;;;;;;5091081;28;20032;-65
2023/06/16 10:36:23;;;;;;;4.35;3.30;;;;;;;;;;5090150;28;20471;-66
2023/06/16 10:38:59;;;;;;;5.50;3.47;;;;;;;;;;5089111;28;20028;-66
2023/06/16 10:41:26;;;;;;;13.00;3.55;;;;;;;;;;5090784;28;20016;-67
2023/06/16 10:43:51;;;;;;;4.72;3.58;;;;;;;;;;5091091;28;20020;-66
2023/06/16 10:46:17;;;;;;;4.35;3.17;;;;;;;;;;5090748;28;20433;-66
2023/06/16 10:48:56;;;;;;;9.15;3.72;;;;;;;;;;5092519;28;20394;-65
2023/06/16 10:51:40;;;;;;;9.07;4.30;;;;;;;;;;5094037;28;20391;-66
2023/06/16 10:54:05;;;;;;;;;;;;;;;;;;5094982;28;20112;-65
2023/06/16 10:56:50;;;;;;;5.93;3.58;;;;;;;;;;5094618;28;19990;-65
2023/06/16 10:59:16;;;;;;;5.68;3.13;;;;;;;;;;5065080;28;21471;-64
2023/06/16 11:01:46;;;;;;;12.18;3.95;;;;;;;;;;5055554;28;20028;-65
2023/06/16 11:04:14;;;;;;;26.92;6.35;;;;;;;;;;5048704;28;20474;-67
2023/06/16 11:06:57;;;;;;;7.32;4.50;;;;;;;;;;5064046;28;20020;-66
2023/06/16 11:09:26;;;;;;;5.05;3.00;;;;;;;;;;5093741;28;20024;-66
2023/06/16 11:11:52;;;;;;;5.65;3.67;;;;;;;;;;5093306;28;20469;-66
2023/06/16 11:14:17;;;;;;;12.03;4.90;;;;;;;;;;5093409;28;20123;-65
2023/06/16 11:16:44;;;;;;;8.68;3.80;;;;;;;;;;5088404;28;20768;-64
2023/06/16 11:19:10;;;;;;;6.72;3.95;;;;;;;;;;5094083;28;20111;-64
2023/06/16 11:21:35;;;;;;;6.53;4.22;;;;;;;;;;5093609;28;20039;-64
2023/06/16 11:24:11;;;;;;;7.07;3.88;;;;;;;;;;5092584;28;20028;-66
2023/06/16 11:26:36;;;;;;;9.30;3.78;;;;;;;;;;5093106;28;20027;-66
2023/06/16 11:29:04;;;;;;;7.00;3.83;;;;;;;;;;5093948;28;20027;-65
2023/06/16 11:31:31;;;;;;;6.28;3.92;;;;;;;;;;5093323;28;20020;-66
2023/06/16 11:33:56;;;;;;;7.28;3.80;;;;;;;;;;5093636;28;20016;-65
2023/06/16 11:36:22;;;;;;;5.50;3.35;;;;;;;;;;5092289;28;20086;-65
2023/06/16 11:38:51;;;;;;;6.57;3.78;;;;;;;;;;5093361;28;20016;-66
2023/06/16 11:41:21;;;;;;;8.50;4.20;;;;;;;;;;5093077;28;20103;-66
2023/06/16 11:43:47;;;;;;;8.02;4.72;;;;;;;;;;5093965;28;20024;-65
2023/06/16 11:46:12;;;;;;;6.30;4.00;;;;;;;;;;5093051;28;20153;-65
2023/06/16 11:48:38;;;;;;;6.30;4.63;;;;;;;;;;5093301;28;20016;-65
2023/06/16 11:51:04;;;;;;;6.15;3.67;;;;;;;;;;5092848;28;20035;-64
2023/06/16 11:53:31;;;;;;;6.68;3.50;;;;;;;;;;5093301;28;20074;-63
2023/06/16 11:55:59;;;;;;;6.22;4.18;;;;;;;;;;5093855;28;20478;-65
2023/06/16 11:58:27;;;;;;;5.63;3.85;;;;;;;;;;5093257;28;20070;-67
2023/06/16 12:00:56;;;;;;;6.20;4.10;;;;;;;;;;5092090;28;20462;-67
2023/06/16 12:03:24;;;;;;;6.13;3.78;;;;;;;;;;5092929;28;20364;-65
2023/06/16 12:05:53;;;;;;;9.50;4.47;;;;;;;;;;5079829;28;20016;-66
2023/06/16 12:08:37;;;;;;;7.03;4.47;;;;;;;;;;5092959;28;20040;-66
2023/06/16 12:11:02;;;;;;;7.25;4.70;;;;;;;;;;5082159;28;20111;-66
2023/06/16 12:13:29;;;;;;;6.20;4.38;;;;;;;;;;5091754;28;20070;-65
2023/06/16 12:15:54;;;;;;;8.27;3.83;;;;;;;;;;5092572;28;20024;-66
2023/06/16 12:18:20;;;;;;;9.60;4.60;;;;;;;;;;5093042;28;20081;-67
2023/06/16 12:20:45;;;;;;;5.40;4.50;;;;;;;;;;5092805;28;20031;-67
2023/06/16 12:23:10;;;;;;;5.50;4.03;;;;;;;;;;5090487;28;20767;-66
2023/06/16 12:25:36;;;;;;;8.88;4.10;;;;;;;;;;5091155;28;20093;-66
2023/06/16 12:28:02;;;;;;;6.93;4.27;;;;;;;;;;5092598;28;20544;-65
2023/06/16 12:30:31;;;;;;;7.22;4.40;;;;;;;;;;5092473;28;20095;-66
2023/06/16 12:32:57;;;;;;;8.88;5.15;;;;;;;;;;5092723;28;20028;-65
2023/06/16 12:35:23;;;;;;;7.83;4.43;;;;;;;;;;5091474;28;20516;-67
2023/06/16 12:37:49;;;;;;;7.97;4.90;;;;;;;;;;5092430;28;20277;-67
2023/06/16 12:40:16;;;;;;;5.57;4.10;;;;;;;;;;5093116;28;20027;-66
2023/06/16 12:42:41;;;;;;;7.57;4.80;;;;;;;;;;5092436;28;20028;-66
2023/06/16 12:45:07;;;;;;;6.47;4.40;;;;;;;;;;5090715;28;20049;-63
2023/06/16 12:47:33;;;;;;;5.47;4.07;;;;;;;;;;5092370;28;20047;-65
2023/06/16 12:49:59;;;;;;;5.85;4.53;;;;;;;;;;5091424;28;20594;-66
2023/06/16 12:52:25;;;;;;;4.97;4.15;;;;;;;;;;5091835;28;20032;-62
2023/06/16 12:54:51;;;;;;;9.00;4.40;;;;;;;;;;5091415;28;20024;-64
2023/06/16 12:57:16;;;;;;;5.50;3.70;;;;;;;;;;5092337;28;20048;-64
2023/06/16 12:59:42;;;;;;;5.40;3.65;;;;;;;;;;5092411;28;20093;-66
2023/06/16 13:02:07;;;;;;;5.60;3.88;;;;;;;;;;5092018;28;20465;-64
2023/06/16 13:04:32;;;;;;;12.50;4.55;;;;;;;;;;5091114;28;20381;-64
2023/06/16 13:06:58;;;;;;;7.70;4.38;;;;;;;;;;5092599;28;20024;-64
2023/06/16 13:09:23;;;;;;;7.33;4.40;;;;;;;;;;5092374;28;20024;-63
2023/06/16 13:11:49;;;;;;;6.25;4.13;;;;;;;;;;5091062;28;20282;-63
2023/06/16 13:14:17;;;;;;;8.90;4.43;;;;;;;;;;5091723;28;20024;-64
2023/06/16 13:16:43;;;;;;;7.05;3.95;;;;;;;;;;5091133;28;20024;-65
2023/06/16 13:19:08;;;;;;;7.95;4.50;;;;;;;;;;5091860;28;20139;-64
2023/06/16 13:21:33;;;;;;;6.30;3.73;;;;;;;;;;5091514;28;20051;-64
2023/06/16 13:23:59;;;;;;;4.97;3.77;;;;;;;;;;5084006;28;20300;-66
2023/06/16 13:26:26;;;;;;;7.97;4.18;;;;;;;;;;5091689;28;21127;-64
2023/06/16 13:28:51;;;;;;;12.27;3.80;;;;;;;;;;5091293;28;20103;-65
2023/06/16 13:31:16;;;;;;;6.53;4.15;;;;;;;;;;5091758;28;20136;-65
2023/06/16 13:33:42;;;;;;;8.23;4.03;;;;;;;;;;5091575;28;20024;-65
2023/06/16 13:36:08;;;;;;;12.35;3.85;;;;;;;;;;5091383;28;20028;-63
2023/06/16 13:38:33;;;;;;;10.02;3.60;;;;;;;;;;5091642;28;20024;-64
2023/06/16 13:40:58;;;;;;;8.05;4.50;;;;;;;;;;5091306;28;20029;-64
2023/06/16 13:43:24;;;;;;;9.17;3.63;;;;;;;;;;5091969;28;20031;-64
2023/06/16 13:45:49;;;;;;;6.07;3.58;;;;;;;;;;5091372;28;20278;-65
2023/06/16 13:48:15;;;;;;;8.13;4.13;;;;;;;;;;5084189;28;20032;-63
2023/06/16 13:50:40;;;;;;;7.03;4.10;;;;;;;;;;5091739;28;20108;-66
2023/06/16 13:53:07;;;;;;;7.80;3.92;;;;;;;;;;5090959;28;20031;-65
2023/06/16 13:55:32;;;;;;;5.28;3.08;;;;;;;;;;5090749;28;20386;-64
2023/06/16 13:57:58;;;;;;;5.68;3.53;;;;;;;;;;5091224;28;20111;-64
2023/06/16 14:00:23;;;;;;;15.60;4.27;;;;;;;;;;5091144;28;20021;-63
2023/06/16 14:02:48;;;;;;;5.20;3.60;;;;;;;;;;5091319;28;20272;-63
2023/06/16 14:05:14;;;;;;;6.00;4.28;;;;;;;;;;5089828;28;20760;-63
2023/06/16 14:07:39;;;;;;;5.13;3.75;;;;;;;;;;5091031;28;20054;-64
2023/06/16 14:10:05;;;;;;;8.35;3.78;;;;;;;;;;5091379;28;20060;-64
2023/06/16 14:12:30;;;;;;;6.30;3.83;;;;;;;;;;5091435;28;20058;-64
2023/06/16 14:14:56;;;;;;;7.83;4.13;;;;;;;;;;5084618;28;20028;-64
2023/06/16 14:17:21;;;;;;;4.72;3.80;;;;;;;;;;5084445;28;20274;-64
2023/06/16 14:19:47;;;;;;;6.70;3.85;;;;;;;;;;5090795;28;20106;-64
2023/06/16 14:22:12;;;;;;;8.57;3.97;;;;;;;;;;5090651;28;20591;-64
2023/06/16 14:24:37;;;;;;;7.33;3.87;;;;;;;;;;5081741;28;20459;-65
2023/06/16 14:27:03;;;;;;;6.27;4.27;;;;;;;;;;5088131;28;20278;-64
2023/06/16 14:29:28;;;;;;;6.28;4.00;;;;;;;;;;5095060;28;20024;-65
2023/06/16 14:31:53;;;;;;;8.97;4.80;;;;;;;;;;5094899;28;20027;-65
2023/06/16 14:34:18;;;;;;;7.70;4.27;;;;;;;;;;5094461;28;20294;-65
2023/06/16 14:36:43;;;;;;;5.65;3.95;;;;;;;;;;5093015;28;20369;-65